Grizzly, Oregon
Current Conditions -  °F | °C
As of 11:35 AM on Wednesday 17 Dec 2014 (Local Time) from KS39 Reporting Station
Overcast Overcast  
Wind Chill:   Ceiling: 7500
Heat Index:   Visibility: 10mi
Dew Point:   Wind: 0mph
Humidity: 87%   Direction: NA
Pressure: 29.83"   Gusts: NA
Location:  44.5°N, 120.92°W
Report Text: KS39 171935Z AUTO 00000KT 10SM BKN075 OVC085 04/02 A2983 RMK AO2
Loading
Personal Weather Stations






























Interactive Weather Map New forecast layout! Learn more

10-Day Weather Forecast

Advertisements
Track Severe Weather on mobile